sensor_id;sensor_type;location;lat;lon;timestamp;P1;durP1;ratioP1;P2;durP2;ratioP2
70183;SDS011;57554;51.546;6.776;2022-09-09T00:06:28;4.57;;;1.23;;
70183;SDS011;57554;51.546;6.776;2022-09-09T00:09:13;5.47;;;1.50;;
70183;SDS011;57554;51.546;6.776;2022-09-09T00:11:52;5.65;;;1.70;;
70183;SDS011;57554;51.546;6.776;2022-09-09T00:14:23;4.57;;;1.55;;
70183;SDS011;57554;51.546;6.776;2022-09-09T00:19:38;5.22;;;1.50;;
70183;SDS011;57554;51.546;6.776;2022-09-09T00:22:16;7.13;;;1.67;;
70183;SDS011;57554;51.546;6.776;2022-09-09T00:24:52;5.28;;;1.52;;
70183;SDS011;57554;51.546;6.776;2022-09-09T00:32:47;6.63;;;1.48;;
70183;SDS011;57554;51.546;6.776;2022-09-09T00:37:52;6.45;;;1.40;;
70183;SDS011;57554;51.546;6.776;2022-09-09T00:42:59;7.07;;;1.63;;
70183;SDS011;57554;51.546;6.776;2022-09-09T00:51:07;6.88;;;2.20;;
70183;SDS011;57554;51.546;6.776;2022-09-09T00:57:34;6.68;;;2.20;;
70183;SDS011;57554;51.546;6.776;2022-09-09T01:05:27;5.20;;;1.50;;
70183;SDS011;57554;51.546;6.776;2022-09-09T01:07:58;4.53;;;1.75;;
70183;SDS011;57554;51.546;6.776;2022-09-09T01:13:11;6.50;;;1.55;;
70183;SDS011;57554;51.546;6.776;2022-09-09T01:15:42;3.92;;;1.40;;
70183;SDS011;57554;51.546;6.776;2022-09-09T01:18:12;6.22;;;1.55;;
70183;SDS011;57554;51.546;6.776;2022-09-09T01:23:46;4.75;;;1.30;;
70183;SDS011;57554;51.546;6.776;2022-09-09T01:29:09;4.60;;;1.40;;
70183;SDS011;57554;51.546;6.776;2022-09-09T01:31:56;4.78;;;1.15;;
70183;SDS011;57554;51.546;6.776;2022-09-09T01:34:24;5.45;;;1.50;;
70183;SDS011;57554;51.546;6.776;2022-09-09T01:39:24;8.68;;;2.00;;
70183;SDS011;57554;51.546;6.776;2022-09-09T01:41:51;5.72;;;1.83;;
70183;SDS011;57554;51.546;6.776;2022-09-09T01:44:18;5.07;;;1.70;;
70183;SDS011;57554;51.546;6.776;2022-09-09T01:46:44;6.68;;;1.95;;
70183;SDS011;57554;51.546;6.776;2022-09-09T01:49:10;7.10;;;2.38;;
70183;SDS011;57554;51.546;6.776;2022-09-09T01:51:36;4.97;;;2.05;;
70183;SDS011;57554;51.546;6.776;2022-09-09T01:54:03;6.63;;;2.47;;
70183;SDS011;57554;51.546;6.776;2022-09-09T01:56:34;6.07;;;2.78;;
70183;SDS011;57554;51.546;6.776;2022-09-09T02:02:48;6.85;;;2.47;;
70183;SDS011;57554;51.546;6.776;2022-09-09T02:05:12;5.38;;;2.30;;
70183;SDS011;57554;51.546;6.776;2022-09-09T02:07:48;6.88;;;2.10;;
70183;SDS011;57554;51.546;6.776;2022-09-09T02:13:11;6.43;;;1.90;;
70183;SDS011;57554;51.546;6.776;2022-09-09T02:16:12;4.68;;;1.85;;
70183;SDS011;57554;51.546;6.776;2022-09-09T02:18:57;7.88;;;2.05;;
70183;SDS011;57554;51.546;6.776;2022-09-09T02:21:24;7.90;;;1.88;;
70183;SDS011;57554;51.546;6.776;2022-09-09T02:23:53;4.78;;;1.95;;
70183;SDS011;57554;51.546;6.776;2022-09-09T02:26:21;5.57;;;1.98;;
70183;SDS011;57554;51.546;6.776;2022-09-09T02:28:49;6.88;;;2.00;;
70183;SDS011;57554;51.546;6.776;2022-09-09T02:31:19;5.90;;;2.22;;
70183;SDS011;57554;51.546;6.776;2022-09-09T02:33:50;6.20;;;2.40;;
70183;SDS011;57554;51.546;6.776;2022-09-09T02:36:19;6.13;;;2.30;;
70183;SDS011;57554;51.546;6.776;2022-09-09T02:38:48;6.35;;;2.50;;
70183;SDS011;57554;51.546;6.776;2022-09-09T02:41:17;6.15;;;2.15;;
70183;SDS011;57554;51.546;6.776;2022-09-09T02:43:45;7.32;;;2.38;;
70183;SDS011;57554;51.546;6.776;2022-09-09T02:46:24;8.57;;;2.72;;
70183;SDS011;57554;51.546;6.776;2022-09-09T02:52:08;7.82;;;2.78;;
70183;SDS011;57554;51.546;6.776;2022-09-09T02:54:40;9.60;;;2.67;;
70183;SDS011;57554;51.546;6.776;2022-09-09T02:57:10;6.50;;;2.35;;
70183;SDS011;57554;51.546;6.776;2022-09-09T02:59:36;9.52;;;2.35;;
70183;SDS011;57554;51.546;6.776;2022-09-09T03:02:03;10.90;;;2.60;;
70183;SDS011;57554;51.546;6.776;2022-09-09T03:04:29;7.78;;;2.80;;
70183;SDS011;57554;51.546;6.776;2022-09-09T03:06:57;7.97;;;2.75;;
70183;SDS011;57554;51.546;6.776;2022-09-09T03:09:23;9.25;;;2.88;;
70183;SDS011;57554;51.546;6.776;2022-09-09T03:11:49;8.90;;;2.63;;
70183;SDS011;57554;51.546;6.776;2022-09-09T03:14:15;10.68;;;2.72;;
70183;SDS011;57554;51.546;6.776;2022-09-09T03:16:41;10.30;;;3.08;;
70183;SDS011;57554;51.546;6.776;2022-09-09T03:19:08;5.85;;;2.20;;
70183;SDS011;57554;51.546;6.776;2022-09-09T03:21:34;6.25;;;2.50;;
70183;SDS011;57554;51.546;6.776;2022-09-09T03:24:00;8.73;;;2.22;;
70183;SDS011;57554;51.546;6.776;2022-09-09T03:26:28;7.07;;;2.40;;
70183;SDS011;57554;51.546;6.776;2022-09-09T03:28:54;7.38;;;2.08;;
70183;SDS011;57554;51.546;6.776;2022-09-09T03:31:20;6.10;;;1.83;;
70183;SDS011;57554;51.546;6.776;2022-09-09T03:33:46;7.90;;;1.90;;
70183;SDS011;57554;51.546;6.776;2022-09-09T03:36:12;8.45;;;2.00;;
70183;SDS011;57554;51.546;6.776;2022-09-09T03:38:38;6.18;;;1.90;;
70183;SDS011;57554;51.546;6.776;2022-09-09T03:41:03;6.97;;;2.40;;
70183;SDS011;57554;51.546;6.776;2022-09-09T03:43:32;7.88;;;2.15;;
70183;SDS011;57554;51.546;6.776;2022-09-09T03:45:58;7.70;;;2.65;;
70183;SDS011;57554;51.546;6.776;2022-09-09T03:48:24;9.48;;;3.13;;
70183;SDS011;57554;51.546;6.776;2022-09-09T03:50:52;9.90;;;2.40;;
70183;SDS011;57554;51.546;6.776;2022-09-09T03:53:19;9.25;;;2.50;;
70183;SDS011;57554;51.546;6.776;2022-09-09T03:55:48;8.52;;;2.42;;
70183;SDS011;57554;51.546;6.776;2022-09-09T03:58:19;9.27;;;2.40;;
70183;SDS011;57554;51.546;6.776;2022-09-09T04:00:59;8.93;;;2.20;;
70183;SDS011;57554;51.546;6.776;2022-09-09T04:03:27;9.88;;;2.28;;
70183;SDS011;57554;51.546;6.776;2022-09-09T04:05:54;8.73;;;2.58;;
70183;SDS011;57554;51.546;6.776;2022-09-09T04:08:21;10.45;;;2.00;;
70183;SDS011;57554;51.546;6.776;2022-09-09T04:10:48;9.75;;;2.60;;
70183;SDS011;57554;51.546;6.776;2022-09-09T04:13:14;6.43;;;2.38;;
70183;SDS011;57554;51.546;6.776;2022-09-09T04:15:41;7.30;;;2.25;;
70183;SDS011;57554;51.546;6.776;2022-09-09T04:18:07;8.77;;;2.78;;
70183;SDS011;57554;51.546;6.776;2022-09-09T04:20:33;7.32;;;2.13;;
70183;SDS011;57554;51.546;6.776;2022-09-09T04:22:59;6.10;;;2.47;;
70183;SDS011;57554;51.546;6.776;2022-09-09T04:25:24;8.07;;;2.30;;
70183;SDS011;57554;51.546;6.776;2022-09-09T04:27:54;7.05;;;2.13;;
70183;SDS011;57554;51.546;6.776;2022-09-09T04:30:20;10.82;;;2.13;;
70183;SDS011;57554;51.546;6.776;2022-09-09T04:32:46;6.28;;;2.28;;
70183;SDS011;57554;51.546;6.776;2022-09-09T04:35:11;8.60;;;2.50;;
70183;SDS011;57554;51.546;6.776;2022-09-09T04:37:37;8.52;;;2.85;;
70183;SDS011;57554;51.546;6.776;2022-09-09T04:40:03;11.30;;;3.00;;
70183;SDS011;57554;51.546;6.776;2022-09-09T04:42:28;6.22;;;2.50;;
70183;SDS011;57554;51.546;6.776;2022-09-09T04:44:54;8.30;;;2.67;;
70183;SDS011;57554;51.546;6.776;2022-09-09T04:47:20;9.40;;;2.53;;
70183;SDS011;57554;51.546;6.776;2022-09-09T04:49:46;9.05;;;2.60;;
70183;SDS011;57554;51.546;6.776;2022-09-09T04:52:12;8.63;;;2.70;;
70183;SDS011;57554;51.546;6.776;2022-09-09T04:54:37;10.55;;;2.97;;
70183;SDS011;57554;51.546;6.776;2022-09-09T04:57:03;7.07;;;3.13;;
70183;SDS011;57554;51.546;6.776;2022-09-09T04:59:30;10.45;;;3.30;;
70183;SDS011;57554;51.546;6.776;2022-09-09T05:01:55;8.93;;;2.58;;
70183;SDS011;57554;51.546;6.776;2022-09-09T05:04:21;9.60;;;3.33;;
70183;SDS011;57554;51.546;6.776;2022-09-09T05:06:46;11.50;;;3.33;;
70183;SDS011;57554;51.546;6.776;2022-09-09T05:09:12;15.38;;;3.55;;
70183;SDS011;57554;51.546;6.776;2022-09-09T05:11:38;10.52;;;3.03;;
70183;SDS011;57554;51.546;6.776;2022-09-09T05:14:03;14.07;;;3.45;;
70183;SDS011;57554;51.546;6.776;2022-09-09T05:16:29;12.52;;;3.40;;
70183;SDS011;57554;51.546;6.776;2022-09-09T05:18:57;9.05;;;2.90;;
70183;SDS011;57554;51.546;6.776;2022-09-09T05:21:23;10.85;;;2.83;;
70183;SDS011;57554;51.546;6.776;2022-09-09T05:23:51;9.13;;;2.78;;
70183;SDS011;57554;51.546;6.776;2022-09-09T05:26:18;9.77;;;2.67;;
70183;SDS011;57554;51.546;6.776;2022-09-09T05:28:45;8.30;;;3.03;;
70183;SDS011;57554;51.546;6.776;2022-09-09T05:31:12;17.40;;;3.25;;
70183;SDS011;57554;51.546;6.776;2022-09-09T05:33:40;10.38;;;2.75;;
70183;SDS011;57554;51.546;6.776;2022-09-09T05:36:08;14.30;;;3.25;;
70183;SDS011;57554;51.546;6.776;2022-09-09T05:38:38;7.78;;;2.80;;
70183;SDS011;57554;51.546;6.776;2022-09-09T05:41:04;8.50;;;2.55;;
70183;SDS011;57554;51.546;6.776;2022-09-09T05:43:30;7.72;;;2.50;;
70183;SDS011;57554;51.546;6.776;2022-09-09T05:46:00;8.27;;;2.75;;
70183;SDS011;57554;51.546;6.776;2022-09-09T05:48:31;8.95;;;2.88;;
70183;SDS011;57554;51.546;6.776;2022-09-09T05:50:58;9.50;;;3.10;;
70183;SDS011;57554;51.546;6.776;2022-09-09T05:53:24;10.48;;;2.60;;
70183;SDS011;57554;51.546;6.776;2022-09-09T05:55:50;11.52;;;2.83;;
70183;SDS011;57554;51.546;6.776;2022-09-09T05:58:23;12.98;;;2.70;;
70183;SDS011;57554;51.546;6.776;2022-09-09T06:00:49;10.02;;;2.72;;
70183;SDS011;57554;51.546;6.776;2022-09-09T06:03:15;13.02;;;2.55;;
70183;SDS011;57554;51.546;6.776;2022-09-09T06:05:41;13.63;;;3.22;;
70183;SDS011;57554;51.546;6.776;2022-09-09T06:08:07;9.40;;;2.47;;
70183;SDS011;57554;51.546;6.776;2022-09-09T06:10:33;11.25;;;3.30;;
70183;SDS011;57554;51.546;6.776;2022-09-09T06:12:59;9.13;;;2.78;;
70183;SDS011;57554;51.546;6.776;2022-09-09T06:15:25;9.77;;;3.17;;
70183;SDS011;57554;51.546;6.776;2022-09-09T06:17:55;13.40;;;2.78;;
70183;SDS011;57554;51.546;6.776;2022-09-09T06:20:21;10.48;;;3.10;;
70183;SDS011;57554;51.546;6.776;2022-09-09T06:22:47;14.93;;;3.70;;
70183;SDS011;57554;51.546;6.776;2022-09-09T06:25:13;9.15;;;2.45;;
70183;SDS011;57554;51.546;6.776;2022-09-09T06:27:39;11.73;;;2.50;;
70183;SDS011;57554;51.546;6.776;2022-09-09T06:30:05;10.07;;;2.83;;
70183;SDS011;57554;51.546;6.776;2022-09-09T06:32:32;12.68;;;2.80;;
70183;SDS011;57554;51.546;6.776;2022-09-09T06:34:59;14.02;;;2.95;;
70183;SDS011;57554;51.546;6.776;2022-09-09T06:37:26;11.15;;;3.38;;
70183;SDS011;57554;51.546;6.776;2022-09-09T06:39:52;12.48;;;2.40;;
70183;SDS011;57554;51.546;6.776;2022-09-09T06:42:19;10.90;;;2.72;;
70183;SDS011;57554;51.546;6.776;2022-09-09T06:44:45;15.38;;;2.60;;
70183;SDS011;57554;51.546;6.776;2022-09-09T06:47:10;12.57;;;2.78;;
70183;SDS011;57554;51.546;6.776;2022-09-09T06:49:36;11.68;;;2.60;;
70183;SDS011;57554;51.546;6.776;2022-09-09T06:52:01;12.20;;;2.08;;
70183;SDS011;57554;51.546;6.776;2022-09-09T06:54:27;8.95;;;1.92;;
70183;SDS011;57554;51.546;6.776;2022-09-09T06:56:53;10.30;;;2.22;;
70183;SDS011;57554;51.546;6.776;2022-09-09T06:59:19;10.93;;;2.45;;
70183;SDS011;57554;51.546;6.776;2022-09-09T07:01:44;11.05;;;2.50;;
70183;SDS011;57554;51.546;6.776;2022-09-09T07:04:11;12.75;;;2.80;;
70183;SDS011;57554;51.546;6.776;2022-09-09T07:06:40;9.20;;;2.30;;
70183;SDS011;57554;51.546;6.776;2022-09-09T07:09:08;12.02;;;2.95;;
70183;SDS011;57554;51.546;6.776;2022-09-09T07:11:39;10.55;;;2.75;;
70183;SDS011;57554;51.546;6.776;2022-09-09T07:14:09;14.57;;;3.00;;
70183;SDS011;57554;51.546;6.776;2022-09-09T07:16:39;10.00;;;2.85;;
70183;SDS011;57554;51.546;6.776;2022-09-09T07:19:05;10.20;;;2.42;;
70183;SDS011;57554;51.546;6.776;2022-09-09T07:21:31;11.45;;;2.53;;
70183;SDS011;57554;51.546;6.776;2022-09-09T07:23:57;8.20;;;2.17;;
70183;SDS011;57554;51.546;6.776;2022-09-09T07:26:24;10.02;;;2.15;;
70183;SDS011;57554;51.546;6.776;2022-09-09T07:28:51;12.65;;;2.33;;
70183;SDS011;57554;51.546;6.776;2022-09-09T07:31:18;10.30;;;2.00;;
70183;SDS011;57554;51.546;6.776;2022-09-09T07:33:52;9.88;;;1.90;;
70183;SDS011;57554;51.546;6.776;2022-09-09T07:38:52;12.45;;;2.15;;
70183;SDS011;57554;51.546;6.776;2022-09-09T07:43:49;8.48;;;1.80;;
70183;SDS011;57554;51.546;6.776;2022-09-09T07:46:16;12.77;;;2.08;;
70183;SDS011;57554;51.546;6.776;2022-09-09T07:48:45;9.75;;;2.83;;
70183;SDS011;57554;51.546;6.776;2022-09-09T07:51:16;8.00;;;1.60;;
70183;SDS011;57554;51.546;6.776;2022-09-09T07:53:44;5.95;;;1.60;;
70183;SDS011;57554;51.546;6.776;2022-09-09T07:56:12;9.68;;;1.60;;
70183;SDS011;57554;51.546;6.776;2022-09-09T07:58:41;9.93;;;1.92;;
70183;SDS011;57554;51.546;6.776;2022-09-09T08:01:10;9.80;;;1.88;;
70183;SDS011;57554;51.546;6.776;2022-09-09T08:03:42;7.82;;;1.80;;
70183;SDS011;57554;51.546;6.776;2022-09-09T08:06:10;9.30;;;1.80;;
70183;SDS011;57554;51.546;6.776;2022-09-09T08:08:37;8.60;;;1.35;;
70183;SDS011;57554;51.546;6.776;2022-09-09T08:11:05;6.47;;;1.25;;
70183;SDS011;57554;51.546;6.776;2022-09-09T08:13:33;11.00;;;1.90;;
70183;SDS011;57554;51.546;6.776;2022-09-09T08:16:04;10.43;;;1.80;;
70183;SDS011;57554;51.546;6.776;2022-09-09T08:18:37;7.65;;;1.83;;
70183;SDS011;57554;51.546;6.776;2022-09-09T08:21:05;8.32;;;1.70;;
70183;SDS011;57554;51.546;6.776;2022-09-09T08:23:31;6.43;;;1.50;;
70183;SDS011;57554;51.546;6.776;2022-09-09T08:26:03;9.10;;;1.60;;
70183;SDS011;57554;51.546;6.776;2022-09-09T08:28:29;6.93;;;1.50;;
70183;SDS011;57554;51.546;6.776;2022-09-09T08:30:56;7.38;;;2.03;;
70183;SDS011;57554;51.546;6.776;2022-09-09T08:33:29;8.48;;;1.50;;
70183;SDS011;57554;51.546;6.776;2022-09-09T08:35:54;9.30;;;1.80;;
70183;SDS011;57554;51.546;6.776;2022-09-09T08:38:21;10.82;;;2.10;;
70183;SDS011;57554;51.546;6.776;2022-09-09T08:40:46;6.35;;;1.70;;
70183;SDS011;57554;51.546;6.776;2022-09-09T08:43:16;8.07;;;1.83;;
70183;SDS011;57554;51.546;6.776;2022-09-09T08:45:50;7.28;;;1.20;;
70183;SDS011;57554;51.546;6.776;2022-09-09T08:48:49;5.43;;;1.40;;
70183;SDS011;57554;51.546;6.776;2022-09-09T08:51:21;7.65;;;1.50;;
70183;SDS011;57554;51.546;6.776;2022-09-09T08:53:52;8.40;;;1.50;;
70183;SDS011;57554;51.546;6.776;2022-09-09T08:56:23;6.10;;;1.42;;
70183;SDS011;57554;51.546;6.776;2022-09-09T08:58:54;7.70;;;1.60;;
70183;SDS011;57554;51.546;6.776;2022-09-09T09:04:26;7.97;;;1.73;;
70183;SDS011;57554;51.546;6.776;2022-09-09T09:07:01;8.95;;;1.95;;
70183;SDS011;57554;51.546;6.776;2022-09-09T09:09:53;7.90;;;1.20;;
70183;SDS011;57554;51.546;6.776;2022-09-09T09:12:35;8.50;;;1.60;;
70183;SDS011;57554;51.546;6.776;2022-09-09T09:15:11;7.20;;;1.48;;
70183;SDS011;57554;51.546;6.776;2022-09-09T09:17:44;9.10;;;2.05;;
70183;SDS011;57554;51.546;6.776;2022-09-09T09:20:13;9.45;;;1.83;;
70183;SDS011;57554;51.546;6.776;2022-09-09T09:27:58;8.30;;;1.42;;
70183;SDS011;57554;51.546;6.776;2022-09-09T09:30:38;11.18;;;1.50;;
70183;SDS011;57554;51.546;6.776;2022-09-09T09:33:52;8.05;;;1.50;;
70183;SDS011;57554;51.546;6.776;2022-09-09T09:36:07;6.57;;;1.20;;
70183;SDS011;57554;51.546;6.776;2022-09-09T09:38:34;6.80;;;1.23;;
70183;SDS011;57554;51.546;6.776;2022-09-09T09:41:01;9.00;;;1.58;;
70183;SDS011;57554;51.546;6.776;2022-09-09T09:43:31;8.73;;;1.48;;
70183;SDS011;57554;51.546;6.776;2022-09-09T09:46:03;11.35;;;1.90;;
70183;SDS011;57554;51.546;6.776;2022-09-09T09:48:29;6.72;;;1.42;;
70183;SDS011;57554;51.546;6.776;2022-09-09T09:50:59;11.85;;;1.35;;
70183;SDS011;57554;51.546;6.776;2022-09-09T09:53:28;6.40;;;1.40;;
70183;SDS011;57554;51.546;6.776;2022-09-09T09:56:02;6.90;;;1.65;;
70183;SDS011;57554;51.546;6.776;2022-09-09T09:58:32;8.88;;;1.88;;
70183;SDS011;57554;51.546;6.776;2022-09-09T10:01:27;6.18;;;1.27;;
70183;SDS011;57554;51.546;6.776;2022-09-09T10:04:01;6.85;;;1.42;;
70183;SDS011;57554;51.546;6.776;2022-09-09T10:06:42;7.55;;;1.60;;
70183;SDS011;57554;51.546;6.776;2022-09-09T10:12:00;6.57;;;1.40;;
70183;SDS011;57554;51.546;6.776;2022-09-09T10:20:04;6.68;;;1.27;;
70183;SDS011;57554;51.546;6.776;2022-09-09T10:22:50;5.85;;;1.23;;
70183;SDS011;57554;51.546;6.776;2022-09-09T10:33:20;8.50;;;1.63;;
70183;SDS011;57554;51.546;6.776;2022-09-09T10:36:01;7.70;;;1.20;;
70183;SDS011;57554;51.546;6.776;2022-09-09T10:38:40;8.88;;;1.45;;
70183;SDS011;57554;51.546;6.776;2022-09-09T10:44:02;5.20;;;1.45;;
70183;SDS011;57554;51.546;6.776;2022-09-09T10:46:53;8.55;;;1.58;;
70183;SDS011;57554;51.546;6.776;2022-09-09T10:52:09;4.53;;;1.25;;
70183;SDS011;57554;51.546;6.776;2022-09-09T10:57:46;7.10;;;1.20;;
70183;SDS011;57554;51.546;6.776;2022-09-09T11:00:15;6.22;;;1.30;;
70183;SDS011;57554;51.546;6.776;2022-09-09T11:02:56;8.48;;;1.15;;
70183;SDS011;57554;51.546;6.776;2022-09-09T11:08:09;5.47;;;1.10;;
70183;SDS011;57554;51.546;6.776;2022-09-09T11:13:33;6.90;;;1.20;;
70183;SDS011;57554;51.546;6.776;2022-09-09T11:16:16;9.27;;;1.55;;
70183;SDS011;57554;51.546;6.776;2022-09-09T11:19:03;8.00;;;1.65;;
70183;SDS011;57554;51.546;6.776;2022-09-09T11:21:37;6.57;;;0.88;;
70183;SDS011;57554;51.546;6.776;2022-09-09T11:24:14;6.63;;;1.20;;
70183;SDS011;57554;51.546;6.776;2022-09-09T11:26:50;6.97;;;1.55;;
70183;SDS011;57554;51.546;6.776;2022-09-09T11:34:50;10.18;;;1.70;;
70183;SDS011;57554;51.546;6.776;2022-09-09T11:37:44;7.53;;;2.03;;
70183;SDS011;57554;51.546;6.776;2022-09-09T11:40:14;11.60;;;1.65;;
70183;SDS011;57554;51.546;6.776;2022-09-09T11:42:48;6.80;;;1.40;;
70183;SDS011;57554;51.546;6.776;2022-09-09T11:45:27;8.15;;;1.40;;
70183;SDS011;57554;51.546;6.776;2022-09-09T11:47:54;7.80;;;1.20;;
70183;SDS011;57554;51.546;6.776;2022-09-09T11:52:48;6.05;;;1.15;;
70183;SDS011;57554;51.546;6.776;2022-09-09T11:55:27;5.63;;;0.90;;
70183;SDS011;57554;51.546;6.776;2022-09-09T12:00:29;4.35;;;1.15;;
70183;SDS011;57554;51.546;6.776;2022-09-09T12:03:05;6.30;;;1.30;;
70183;SDS011;57554;51.546;6.776;2022-09-09T12:05:51;8.85;;;2.15;;
70183;SDS011;57554;51.546;6.776;2022-09-09T12:08:19;8.70;;;1.55;;
70183;SDS011;57554;51.546;6.776;2022-09-09T12:10:57;7.63;;;1.20;;
70183;SDS011;57554;51.546;6.776;2022-09-09T12:13:28;7.80;;;1.38;;
70183;SDS011;57554;51.546;6.776;2022-09-09T12:15:57;8.25;;;1.42;;
70183;SDS011;57554;51.546;6.776;2022-09-09T12:18:24;5.13;;;1.40;;
70183;SDS011;57554;51.546;6.776;2022-09-09T12:23:50;7.13;;;1.70;;
70183;SDS011;57554;51.546;6.776;2022-09-09T12:29:12;5.85;;;1.27;;
70183;SDS011;57554;51.546;6.776;2022-09-09T12:32:11;5.75;;;1.52;;
70183;SDS011;57554;51.546;6.776;2022-09-09T12:40:14;9.25;;;2.17;;
70183;SDS011;57554;51.546;6.776;2022-09-09T12:42:45;9.45;;;1.50;;
70183;SDS011;57554;51.546;6.776;2022-09-09T12:45:18;6.10;;;1.13;;
70183;SDS011;57554;51.546;6.776;2022-09-09T12:50:24;6.30;;;0.88;;
70183;SDS011;57554;51.546;6.776;2022-09-09T12:52:54;4.60;;;0.88;;
70183;SDS011;57554;51.546;6.776;2022-09-09T12:55:30;4.30;;;1.00;;
70183;SDS011;57554;51.546;6.776;2022-09-09T12:57:58;4.18;;;0.82;;
70183;SDS011;57554;51.546;6.776;2022-09-09T13:00:29;6.63;;;0.80;;
70183;SDS011;57554;51.546;6.776;2022-09-09T13:02:56;5.05;;;1.20;;
70183;SDS011;57554;51.546;6.776;2022-09-09T13:05:27;4.63;;;1.00;;
70183;SDS011;57554;51.546;6.776;2022-09-09T13:08:02;6.35;;;1.10;;
70183;SDS011;57554;51.546;6.776;2022-09-09T13:10:35;4.97;;;1.15;;
70183;SDS011;57554;51.546;6.776;2022-09-09T13:13:14;11.52;;;1.10;;
70183;SDS011;57554;51.546;6.776;2022-09-09T13:15:47;5.45;;;1.50;;
70183;SDS011;57554;51.546;6.776;2022-09-09T13:20:47;7.20;;;1.75;;
70183;SDS011;57554;51.546;6.776;2022-09-09T13:23:14;7.90;;;1.65;;
70183;SDS011;57554;51.546;6.776;2022-09-09T13:25:41;4.90;;;1.65;;
70183;SDS011;57554;51.546;6.776;2022-09-09T13:28:23;5.28;;;1.50;;
70183;SDS011;57554;51.546;6.776;2022-09-09T13:33:43;6.03;;;1.45;;
70183;SDS011;57554;51.546;6.776;2022-09-09T13:36:10;4.72;;;1.30;;
70183;SDS011;57554;51.546;6.776;2022-09-09T13:38:38;4.43;;;1.20;;
70183;SDS011;57554;51.546;6.776;2022-09-09T13:41:21;5.93;;;1.27;;
70183;SDS011;57554;51.546;6.776;2022-09-09T13:48:55;6.50;;;1.60;;
70183;SDS011;57554;51.546;6.776;2022-09-09T13:54:04;7.82;;;1.52;;
70183;SDS011;57554;51.546;6.776;2022-09-09T13:56:31;6.07;;;1.60;;
70183;SDS011;57554;51.546;6.776;2022-09-09T13:58:58;8.45;;;2.00;;
70183;SDS011;57554;51.546;6.776;2022-09-09T14:01:24;9.80;;;2.17;;
70183;SDS011;57554;51.546;6.776;2022-09-09T14:03:49;6.57;;;1.40;;
70183;SDS011;57554;51.546;6.776;2022-09-09T14:06:15;4.70;;;1.30;;
70183;SDS011;57554;51.546;6.776;2022-09-09T14:08:43;8.70;;;2.00;;
70183;SDS011;57554;51.546;6.776;2022-09-09T14:11:11;12.48;;;1.45;;
70183;SDS011;57554;51.546;6.776;2022-09-09T14:13:37;4.78;;;1.15;;
70183;SDS011;57554;51.546;6.776;2022-09-09T14:16:03;6.18;;;1.25;;
70183;SDS011;57554;51.546;6.776;2022-09-09T14:18:29;4.95;;;1.00;;
70183;SDS011;57554;51.546;6.776;2022-09-09T14:20:54;7.22;;;1.13;;
70183;SDS011;57554;51.546;6.776;2022-09-09T14:23:22;6.03;;;1.30;;
70183;SDS011;57554;51.546;6.776;2022-09-09T14:25:48;5.55;;;1.45;;
70183;SDS011;57554;51.546;6.776;2022-09-09T14:28:14;5.45;;;1.30;;
70183;SDS011;57554;51.546;6.776;2022-09-09T14:30:40;6.85;;;1.25;;
70183;SDS011;57554;51.546;6.776;2022-09-09T14:33:07;4.90;;;1.25;;
70183;SDS011;57554;51.546;6.776;2022-09-09T14:35:34;6.47;;;1.40;;
70183;SDS011;57554;51.546;6.776;2022-09-09T14:38:01;5.47;;;1.58;;
70183;SDS011;57554;51.546;6.776;2022-09-09T14:40:28;3.17;;;0.60;;
70183;SDS011;57554;51.546;6.776;2022-09-09T14:42:53;2.75;;;0.65;;
70183;SDS011;57554;51.546;6.776;2022-09-09T14:45:20;13.98;;;2.30;;
70183;SDS011;57554;51.546;6.776;2022-09-09T14:47:46;9.95;;;1.60;;
70183;SDS011;57554;51.546;6.776;2022-09-09T14:50:12;7.32;;;1.60;;
70183;SDS011;57554;51.546;6.776;2022-09-09T14:52:38;10.15;;;1.30;;
70183;SDS011;57554;51.546;6.776;2022-09-09T14:55:04;4.88;;;1.10;;
70183;SDS011;57554;51.546;6.776;2022-09-09T14:57:31;5.00;;;1.10;;
70183;SDS011;57554;51.546;6.776;2022-09-09T14:59:56;5.68;;;1.27;;
70183;SDS011;57554;51.546;6.776;2022-09-09T15:02:22;6.15;;;1.15;;
70183;SDS011;57554;51.546;6.776;2022-09-09T15:04:47;11.45;;;1.23;;
70183;SDS011;57554;51.546;6.776;2022-09-09T15:07:15;7.95;;;1.23;;
70183;SDS011;57554;51.546;6.776;2022-09-09T15:09:41;4.78;;;1.10;;
70183;SDS011;57554;51.546;6.776;2022-09-09T15:12:07;3.83;;;0.93;;
70183;SDS011;57554;51.546;6.776;2022-09-09T15:14:33;7.70;;;1.05;;
70183;SDS011;57554;51.546;6.776;2022-09-09T15:17:00;4.75;;;1.10;;
70183;SDS011;57554;51.546;6.776;2022-09-09T15:19:26;5.82;;;1.42;;
70183;SDS011;57554;51.546;6.776;2022-09-09T15:21:51;6.07;;;1.40;;
70183;SDS011;57554;51.546;6.776;2022-09-09T15:24:17;4.35;;;1.02;;
70183;SDS011;57554;51.546;6.776;2022-09-09T15:26:43;10.25;;;1.85;;
70183;SDS011;57554;51.546;6.776;2022-09-09T15:29:08;11.63;;;3.10;;
70183;SDS011;57554;51.546;6.776;2022-09-09T15:31:34;10.75;;;3.00;;
70183;SDS011;57554;51.546;6.776;2022-09-09T15:34:01;9.40;;;2.30;;
70183;SDS011;57554;51.546;6.776;2022-09-09T15:36:29;6.65;;;1.73;;
70183;SDS011;57554;51.546;6.776;2022-09-09T15:39:00;7.80;;;1.30;;
70183;SDS011;57554;51.546;6.776;2022-09-09T15:41:27;6.13;;;1.50;;
70183;SDS011;57554;51.546;6.776;2022-09-09T15:43:54;4.53;;;1.20;;
70183;SDS011;57554;51.546;6.776;2022-09-09T15:46:32;6.47;;;1.55;;
70183;SDS011;57554;51.546;6.776;2022-09-09T15:49:04;7.22;;;1.90;;
70183;SDS011;57554;51.546;6.776;2022-09-09T15:51:31;8.32;;;2.20;;
70183;SDS011;57554;51.546;6.776;2022-09-09T15:53:58;6.82;;;2.28;;
70183;SDS011;57554;51.546;6.776;2022-09-09T15:56:27;5.70;;;2.13;;
70183;SDS011;57554;51.546;6.776;2022-09-09T15:58:57;5.60;;;2.03;;
70183;SDS011;57554;51.546;6.776;2022-09-09T16:01:25;6.00;;;1.88;;
70183;SDS011;57554;51.546;6.776;2022-09-09T16:03:51;6.88;;;2.08;;
70183;SDS011;57554;51.546;6.776;2022-09-09T16:06:19;7.38;;;2.00;;
70183;SDS011;57554;51.546;6.776;2022-09-09T16:08:46;7.38;;;2.17;;
70183;SDS011;57554;51.546;6.776;2022-09-09T16:11:25;9.10;;;2.22;;
70183;SDS011;57554;51.546;6.776;2022-09-09T16:13:53;9.27;;;2.22;;
70183;SDS011;57554;51.546;6.776;2022-09-09T16:16:20;5.80;;;1.83;;
70183;SDS011;57554;51.546;6.776;2022-09-09T16:21:24;8.55;;;1.83;;
70183;SDS011;57554;51.546;6.776;2022-09-09T16:23:54;7.93;;;1.60;;
70183;SDS011;57554;51.546;6.776;2022-09-09T16:26:22;7.30;;;1.70;;
70183;SDS011;57554;51.546;6.776;2022-09-09T16:28:48;6.10;;;1.65;;
70183;SDS011;57554;51.546;6.776;2022-09-09T16:31:18;6.68;;;1.60;;
70183;SDS011;57554;51.546;6.776;2022-09-09T16:33:45;5.03;;;1.25;;
70183;SDS011;57554;51.546;6.776;2022-09-09T16:36:12;4.40;;;1.20;;
70183;SDS011;57554;51.546;6.776;2022-09-09T16:38:40;3.92;;;1.15;;
70183;SDS011;57554;51.546;6.776;2022-09-09T16:41:08;4.35;;;1.10;;
70183;SDS011;57554;51.546;6.776;2022-09-09T16:43:35;6.03;;;1.10;;
70183;SDS011;57554;51.546;6.776;2022-09-09T16:46:14;5.00;;;0.90;;
70183;SDS011;57554;51.546;6.776;2022-09-09T16:48:44;4.45;;;1.00;;
70183;SDS011;57554;51.546;6.776;2022-09-09T16:51:16;5.15;;;1.00;;
70183;SDS011;57554;51.546;6.776;2022-09-09T16:53:48;4.70;;;1.05;;
70183;SDS011;57554;51.546;6.776;2022-09-09T16:56:15;3.63;;;0.90;;
70183;SDS011;57554;51.546;6.776;2022-09-09T16:58:43;4.30;;;0.98;;
70183;SDS011;57554;51.546;6.776;2022-09-09T17:01:15;4.85;;;1.08;;
70183;SDS011;57554;51.546;6.776;2022-09-09T17:03:40;4.43;;;1.00;;
70183;SDS011;57554;51.546;6.776;2022-09-09T17:06:10;2.88;;;0.90;;
70183;SDS011;57554;51.546;6.776;2022-09-09T17:08:36;3.63;;;1.00;;
70183;SDS011;57554;51.546;6.776;2022-09-09T17:11:03;4.05;;;1.17;;
70183;SDS011;57554;51.546;6.776;2022-09-09T17:13:40;5.75;;;1.30;;
70183;SDS011;57554;51.546;6.776;2022-09-09T17:16:07;4.82;;;1.08;;
70183;SDS011;57554;51.546;6.776;2022-09-09T17:18:33;8.07;;;1.70;;